Terminal Aerodrome Forecast
Issued by NWS Sioux Falls, SD

Home | Current Version | Previous Version | Graphics & Text | Print | Product List | Glossary On
Versions: 1 2 3 4 5 6 7 8 9 10 11 12 13 14 15 16 17 18 19 20 21 22
000
FTUS43 KFSD 062325
TAFFSD
TAF
KFSD 062325Z 0700/0724 36017G24KT 5SM FU BKN035
     FM070100 01008KT 6SM FU SKC
     FM070300 01004KT 4SM FU SKC
      TEMPO 0705/0709 2SM FU
     FM071400 03008KT 6SM FU SKC
     FM071700 05007KT P6SM FEW200=

USA.gov is the U.S. government's official web portal to all federal, state and local government web resources and services.